Time;durP1;ratioP1;P1;durP2;ratioP2;P2;SDS_P1;SDS_P2;PMS_P1;PMS_P2;Temp;Humidity;BMP_temperature;BMP_pressure;BME280_temperature;BME280_humidity;BME280_pressure;Samples;Min_cycle;Max_cycle;Signal;HPM_P1;HPM_P2
2021/01/19 00:04:24;;;;;;;1999.90;999.90;;;;;;;5.29;76.19;101093.22;15665607;28;20426;-61
2021/01/19 00:11:57;;;;;;;1999.90;999.90;;;;;;;5.36;75.96;101079.88;15648331;28;20043;-60
2021/01/19 00:19:28;;;;;;;1999.90;999.90;;;;;;;5.42;76.12;101073.19;15645115;28;20182;-59
2021/01/19 00:27:01;;;;;;;1999.90;999.90;;;;;;;5.38;75.30;101065.75;15643236;28;20063;-61
2021/01/19 00:34:32;;;;;;;1999.90;999.90;;;;;;;5.38;75.01;101057.44;15644231;28;20064;-62
2021/01/19 00:42:05;;;;;;;1999.90;999.90;;;;;;;5.28;75.73;101066.66;15664140;28;20047;-64
2021/01/19 00:49:37;;;;;;;1999.90;999.90;;;;;;;5.24;75.81;101062.84;15641336;28;20045;-60
2021/01/19 00:57:10;;;;;;;1999.90;999.90;;;;;;;5.41;75.22;101063.22;15659102;28;20486;-61
2021/01/19 01:04:44;;;;;;;1999.90;999.90;;;;;;;5.45;74.75;101060.72;15621734;28;20459;-60
2021/01/19 01:12:16;;;;;;;1999.90;999.90;;;;;;;5.45;74.85;101056.00;15653024;28;20049;-61
2021/01/19 01:19:48;;;;;;;1999.90;999.90;;;;;;;5.29;75.71;101050.88;15661035;28;20057;-61
2021/01/19 01:27:20;;;;;;;1999.90;999.90;;;;;;;5.55;74.29;101051.50;15602002;28;20408;-61
2021/01/19 01:34:52;;;;;;;1999.90;999.90;;;;;;;5.32;75.69;101047.56;15659185;28;20050;-61
2021/01/19 01:42:25;;;;;;;1999.90;999.90;;;;;;;5.50;74.60;101042.09;15647064;28;20045;-63
2021/01/19 01:49:57;;;;;;;1999.90;999.90;;;;;;;5.52;74.77;101041.81;15637233;28;20141;-63
2021/01/19 01:57:32;;;;;;;1999.90;999.90;;;;;;;5.41;74.44;101020.88;15619261;28;20051;-62
2021/01/19 02:05:04;;;;;;;1999.90;999.90;;;;;;;5.26;74.98;101030.16;15653163;28;20067;-63
2021/01/19 02:12:46;;;;;;;1999.90;999.90;;;;;;;5.58;74.70;101006.59;15620623;28;20486;-63
2021/01/19 02:20:47;;;;;;;1999.90;999.90;;;;;;;5.26;75.20;101015.50;15652848;28;20038;-64
2021/01/19 02:28:25;;;;;;;1999.90;999.90;;;;;;;5.26;75.56;101012.72;15649500;28;20140;-62
2021/01/19 02:36:03;;;;;;;1999.90;999.90;;;;;;;5.10;75.63;101007.31;15652260;28;20159;-61
2021/01/19 02:43:39;;;;;;;1999.90;999.90;;;;;;;5.21;75.99;101006.13;15655417;28;20072;-61
2021/01/19 02:51:12;;;;;;;1999.90;999.90;;;;;;;5.27;75.51;101000.53;15640822;28;20123;-64
2021/01/19 02:58:54;;;;;;;1999.90;999.90;;;;;;;5.23;75.48;100997.53;15635633;28;20435;-61
2021/01/19 03:06:31;;;;;;;1999.90;999.90;;;;;;;5.54;74.73;101000.03;15666732;28;20052;-63
2021/01/19 03:14:03;;;;;;;1999.90;999.90;;;;;;;5.40;75.35;101008.97;15674157;28;20135;-63
2021/01/19 03:21:36;;;;;;;1999.90;999.90;;;;;;;5.38;74.87;101000.16;15648528;28;20486;-62
2021/01/19 03:29:08;;;;;;;1999.90;999.90;;;;;;;5.22;74.76;100974.59;15645382;28;20425;-63
2021/01/19 03:36:41;;;;;;;1999.90;999.90;;;;;;;5.34;74.72;100976.13;15647255;28;20304;-62
2021/01/19 03:44:12;;;;;;;1999.90;999.90;;;;;;;5.46;73.76;100963.53;15635149;28;20052;-61
2021/01/19 03:51:45;;;;;;;1999.90;999.90;;;;;;;5.42;74.25;100978.28;15655747;28;20120;-61
2021/01/19 03:59:16;;;;;;;1999.90;999.90;;;;;;;5.37;74.27;100975.53;15647793;28;20045;-63
2021/01/19 04:06:49;;;;;;;1999.90;999.90;;;;;;;5.52;73.95;100956.00;15638988;28;20174;-63
2021/01/19 04:14:20;;;;;;;1999.90;999.90;;;;;;;5.44;73.78;100949.19;15632880;28;20041;-63
2021/01/19 04:21:53;;;;;;;1999.90;999.90;;;;;;;5.33;74.53;100946.81;15626678;28;20061;-62
2021/01/19 04:29:24;;;;;;;1999.90;999.90;;;;;;;5.34;74.33;100949.28;15645847;28;20586;-62
2021/01/19 04:36:57;;;;;;;1999.90;999.90;;;;;;;5.37;74.17;100939.56;15659089;28;20480;-62
2021/01/19 04:44:30;;;;;;;1999.90;999.90;;;;;;;5.40;73.43;100941.75;15631710;28;20140;-66
2021/01/19 04:52:05;;;;;;;1999.90;999.90;;;;;;;5.37;74.35;100937.63;15625726;28;20033;-61
2021/01/19 04:59:38;;;;;;;1999.90;999.90;;;;;;;5.31;73.71;100929.66;15657956;28;20045;-62
2021/01/19 05:07:31;;;;;;;1999.90;999.90;;;;;;;5.34;74.21;100942.94;15640236;28;20068;-61
2021/01/19 05:15:03;;;;;;;1999.90;999.90;;;;;;;5.47;73.08;100928.38;15626652;28;20128;-62
2021/01/19 05:22:36;;;;;;;1999.90;999.90;;;;;;;5.11;74.59;100906.66;15655813;28;20056;-62
2021/01/19 05:30:08;;;;;;;1999.90;999.90;;;;;;;5.20;74.67;100896.56;15632209;28;20152;-62
2021/01/19 05:37:43;;;;;;;1999.90;999.90;;;;;;;4.98;74.93;100862.22;15639393;28;20278;-62
2021/01/19 05:45:15;;;;;;;1999.90;999.90;;;;;;;4.89;75.17;100853.75;15676786;28;20073;-62
2021/01/19 05:52:50;;;;;;;1999.90;999.90;;;;;;;5.16;73.45;100859.53;15637045;28;20570;-60
2021/01/19 06:00:26;;;;;;;1999.90;999.90;;;;;;;4.99;74.71;100858.34;15626431;28;20133;-62
2021/01/19 06:08:01;;;;;;;1999.90;999.90;;;;;;;5.24;73.82;100851.72;15657318;28;20045;-62
2021/01/19 06:15:34;;;;;;;1999.90;999.90;;;;;;;5.26;73.50;100844.78;15644125;28;20068;-62
2021/01/19 06:23:07;;;;;;;1999.90;999.90;;;;;;;5.07;73.22;100833.63;15649946;28;20041;-59
2021/01/19 06:30:38;;;;;;;1999.90;999.90;;;;;;;5.07;73.17;100821.75;15624373;28;20037;-60
2021/01/19 06:38:12;;;;;;;1999.90;999.90;;;;;;;5.14;73.20;100811.16;15662643;28;20098;-63
2021/01/19 06:45:48;;;;;;;1999.90;999.90;;;;;;;5.11;73.21;100798.75;15665926;28;20045;-61
2021/01/19 06:53:23;;;;;;;1999.90;999.90;;;;;;;5.13;73.45;100788.22;15659971;28;20045;-60
2021/01/19 07:01:00;;;;;;;1999.90;999.90;;;;;;;4.99;73.08;100773.44;15658522;28;20049;-61
2021/01/19 07:09:02;;;;;;;1999.90;999.90;;;;;;;4.86;73.80;100772.19;15677497;28;20501;-61
2021/01/19 07:16:46;;;;;;;1999.90;999.90;;;;;;;5.01;73.53;100762.09;15678073;28;20387;-63
2021/01/19 07:24:21;;;;;;;1999.90;999.90;;;;;;;4.85;74.10;100747.63;15680984;28;20068;-62
2021/01/19 07:31:54;;;;;;;1999.90;999.90;;;;;;;4.93;74.48;100736.72;15671085;28;20037;-60
2021/01/19 07:39:31;;;;;;;1999.90;999.90;;;;;;;5.07;73.70;100725.78;15669782;28;20491;-64
2021/01/19 07:47:14;;;;;;;1999.90;999.90;;;;;;;5.17;73.95;100705.47;15688847;28;20045;-63
2021/01/19 07:54:46;;;;;;;1999.90;999.90;;;;;;;5.24;73.53;100711.44;15669947;28;20262;-64
2021/01/19 08:02:24;;;;;;;1999.90;999.90;;;;;;;5.18;73.84;100702.38;15667969;28;20037;-63
2021/01/19 08:09:56;;;;;;;1999.90;999.90;;;;;;;5.43;73.62;100692.09;15668040;28;20072;-61
2021/01/19 08:17:36;;;;;;;1999.90;999.90;;;;;;;5.61;73.16;100694.00;15686233;28;20041;-63
2021/01/19 08:25:11;;;;;;;1999.90;999.90;;;;;;;5.50;73.27;100679.50;15685161;28;20048;-63
2021/01/19 08:32:47;;;;;;;1999.90;999.90;;;;;;;5.79;72.24;100673.78;15684627;28;20053;-63
2021/01/19 08:40:29;;;;;;;1999.90;999.90;;;;;;;5.54;72.37;100663.16;15664421;28;20120;-63
2021/01/19 08:48:03;;;;;;;1999.90;999.90;;;;;;;5.61;71.86;100644.19;15666373;28;20051;-62
2021/01/19 08:55:35;;;;;;;1999.90;999.90;;;;;;;5.58;71.74;100636.50;15684155;28;20212;-63
2021/01/19 09:03:12;;;;;;;1999.90;999.90;;;;;;;5.91;71.00;100634.56;15666277;28;20071;-62
2021/01/19 09:10:45;;;;;;;1999.90;999.90;;;;;;;5.68;71.24;100611.41;15683722;28;20466;-62
2021/01/19 09:18:18;;;;;;;1999.90;999.90;;;;;;;5.71;70.85;100608.03;15667560;28;20102;-61
2021/01/19 09:26:03;;;;;;;1999.90;999.90;;;;;;;5.84;71.04;100581.53;15668494;28;20120;-61
2021/01/19 09:33:36;;;;;;;1999.90;999.90;;;;;;;5.57;71.99;100590.56;15684169;28;20049;-62
2021/01/19 09:41:08;;;;;;;1999.90;999.90;;;;;;;5.72;71.14;100579.22;15666034;28;20067;-62
2021/01/19 09:48:41;;;;;;;1999.90;999.90;;;;;;;5.45;72.28;100560.59;15680799;28;20064;-60
2021/01/19 09:56:16;;;;;;;1999.90;999.90;;;;;;;5.66;72.04;100527.03;15653760;28;20107;-63
2021/01/19 10:03:49;;;;;;;1999.90;999.90;;;;;;;5.70;71.96;100500.38;15671124;28;20072;-61
2021/01/19 10:11:30;;;;;;;1999.90;999.90;;;;;;;5.85;70.43;100482.66;15663803;28;20148;-62
2021/01/19 10:19:05;;;;;;;1999.90;999.90;;;;;;;5.78;70.27;100441.50;15680065;28;20049;-65
2021/01/19 10:26:36;;;;;;;1999.90;999.90;;;;;;;5.78;70.19;100420.19;15661157;28;20171;-63
2021/01/19 10:34:13;;;;;;;1999.90;999.90;;;;;;;5.89;69.75;100390.34;15661221;28;20049;-63
2021/01/19 10:41:45;;;;;;;1999.90;999.90;;;;;;;5.63;70.93;100375.41;15661738;28;20048;-60
2021/01/19 10:49:19;;;;;;;1999.90;999.90;;;;;;;5.56;72.30;100361.97;15679875;28;20063;-62
2021/01/19 10:57:02;;;;;;;1999.90;999.90;;;;;;;5.12;72.44;100344.03;15660514;28;20056;-62
2021/01/19 11:04:36;;;;;;;1999.90;999.90;;;;;;;4.73;74.31;100343.63;15690489;28;20059;-62
2021/01/19 11:12:09;;;;;;;1999.90;999.90;;;;;;;4.73;75.23;100325.09;15689616;28;20052;-62
2021/01/19 11:19:41;;;;;;;1999.90;999.90;;;;;;;4.72;75.36;100329.00;15670800;28;20049;-65
2021/01/19 11:27:13;;;;;;;1999.90;999.90;;;;;;;4.39;75.69;100306.06;15688724;28;20050;-60
2021/01/19 11:34:53;;;;;;;1999.90;999.90;;;;;;;3.92;77.55;100282.25;15670453;28;20095;-63
2021/01/19 11:42:30;;;;;;;1999.90;999.90;;;;;;;3.64;77.47;100273.81;15686666;28;20049;-63
2021/01/19 11:50:03;;;;;;;1999.90;999.90;;;;;;;3.30;78.02;100253.88;15687054;28;20139;-64
2021/01/19 11:57:37;;;;;;;1999.90;999.90;;;;;;;3.00;79.11;100231.09;15668226;28;20521;-60
2021/01/19 12:05:12;;;;;;;1999.90;999.90;;;;;;;2.80;79.57;100207.34;15685829;28;20076;-65
2021/01/19 12:12:44;;;;;;;1999.90;999.90;;;;;;;2.99;78.95;100193.59;15685519;28;20029;-64
2021/01/19 12:20:17;;;;;;;1999.90;999.90;;;;;;;2.78;79.74;100172.94;15684865;28;20053;-65
2021/01/19 12:27:50;;;;;;;1999.90;999.90;;;;;;;3.01;79.43;100155.53;15687110;28;20500;-65
2021/01/19 12:35:23;;;;;;;1999.90;999.90;;;;;;;2.94;79.29;100146.84;15685733;28;20049;-60
2021/01/19 12:42:55;;;;;;;1999.90;999.90;;;;;;;2.90;79.70;100121.78;15684216;28;20387;-63
2021/01/19 12:50:27;;;;;;;1999.90;999.90;;;;;;;2.82;79.79;100107.88;15684259;28;20123;-61
2021/01/19 12:58:00;;;;;;;1999.90;999.90;;;;;;;2.70;80.43;100093.69;15683985;28;20494;-62
2021/01/19 13:05:32;;;;;;;1999.90;999.90;;;;;;;3.02;79.60;100084.69;15683845;28;20413;-66
2021/01/19 13:13:07;;;;;;;1999.90;999.90;;;;;;;3.22;79.30;100072.53;15666027;28;20186;-64
2021/01/19 13:20:40;;;;;;;1999.90;999.90;;;;;;;2.99;79.57;100060.50;15664200;28;20355;-64
2021/01/19 13:28:12;;;;;;;1999.90;999.90;;;;;;;3.18;79.09;100053.03;15682563;28;20037;-65
2021/01/19 13:35:45;;;;;;;1999.90;999.90;;;;;;;3.40;78.47;100044.13;15681579;28;20070;-65
2021/01/19 13:43:17;;;;;;;1999.90;999.90;;;;;;;3.34;78.75;100035.13;15664090;28;20053;-65
2021/01/19 13:50:50;;;;;;;1999.90;999.90;;;;;;;3.54;78.14;100025.66;15655583;28;20556;-62
2021/01/19 13:58:21;;;;;;;1999.90;999.90;;;;;;;3.48;78.48;100030.47;15626244;28;20056;-64
2021/01/19 14:05:54;;;;;;;1999.90;999.90;;;;;;;3.52;78.76;100024.34;15654901;28;20045;-62
2021/01/19 14:13:27;;;;;;;1999.90;999.90;;;;;;;3.61;78.24;100022.53;15637443;28;20037;-65
2021/01/19 14:20:59;;;;;;;1999.90;999.90;;;;;;;3.61;78.77;100017.00;15642315;28;20092;-65
2021/01/19 14:28:31;;;;;;;1999.90;999.90;;;;;;;3.67;78.61;100008.34;15644984;28;20512;-61
2021/01/19 14:36:03;;;;;;;1999.90;999.90;;;;;;;3.75;78.26;100006.78;15651504;28;20171;-61
2021/01/19 14:43:35;;;;;;;1999.90;999.90;;;;;;;3.63;78.52;100007.28;15683068;28;20044;-62
2021/01/19 14:51:08;;;;;;;1999.90;999.90;;;;;;;3.78;78.75;99991.59;15683193;28;20402;-60
2021/01/19 14:58:40;;;;;;;1999.90;999.90;;;;;;;3.83;78.56;99997.00;15635019;28;20309;-63
2021/01/19 15:06:12;;;;;;;1999.90;999.90;;;;;;;3.85;78.55;99992.00;15661296;28;20048;-65
2021/01/19 15:13:44;;;;;;;1999.90;999.90;;;;;;;3.89;78.25;99984.75;15632638;28;20042;-64
2021/01/19 15:21:16;;;;;;;1999.90;999.90;;;;;;;3.66;79.24;99989.34;15620356;28;20037;-60
2021/01/19 15:28:48;;;;;;;1999.90;999.90;;;;;;;3.99;78.11;99976.25;15668977;28;20136;-63
2021/01/19 15:36:23;;;;;;;1999.90;999.90;;;;;;;4.05;78.35;99978.59;15648826;28;20041;-62
2021/01/19 15:43:55;;;;;;;1999.90;999.90;;;;;;;3.85;79.32;99978.19;15686193;28;20039;-61
2021/01/19 15:51:28;;;;;;;1999.90;999.90;;;;;;;3.92;79.88;99976.66;15612113;28;20038;-63
2021/01/19 15:59:01;;;;;;;1999.90;999.90;;;;;;;3.96;79.43;99972.19;15633065;28;20052;-62
2021/01/19 16:06:35;;;;;;;1999.90;999.90;;;;;;;4.13;79.52;99974.31;15676435;28;20252;-61
2021/01/19 16:14:07;;;;;;;1999.90;999.90;;;;;;;4.17;79.69;99969.81;15686348;28;20127;-62
2021/01/19 16:21:40;;;;;;;1999.90;999.90;;;;;;;4.11;80.28;99971.03;15663828;28;20168;-61
2021/01/19 16:29:11;;;;;;;1999.90;999.90;;;;;;;4.20;79.80;99960.09;15632762;28;20071;-62
2021/01/19 16:36:45;;;;;;;1999.90;999.90;;;;;;;4.38;79.31;99972.13;15664849;28;20143;-62
2021/01/19 16:44:16;;;;;;;1999.90;999.90;;;;;;;4.28;79.71;99967.66;15652124;28;20502;-63
2021/01/19 16:51:49;;;;;;;1999.90;999.90;;;;;;;4.44;79.68;99974.47;15631012;28;20075;-62
2021/01/19 16:59:20;;;;;;;1999.90;999.90;;;;;;;4.46;79.46;99976.91;15636741;28;20131;-62
2021/01/19 17:06:53;;;;;;;1999.90;999.90;;;;;;;4.38;79.88;99977.63;15666687;28;20041;-63
2021/01/19 17:14:25;;;;;;;1999.90;999.90;;;;;;;4.54;79.63;99965.13;15642088;28;20047;-62
2021/01/19 17:21:58;;;;;;;1999.90;999.90;;;;;;;4.58;80.70;99968.91;15612071;28;20046;-62
2021/01/19 17:29:29;;;;;;;1999.90;999.90;;;;;;;4.61;80.59;99982.94;15676569;28;20039;-62
2021/01/19 17:37:02;;;;;;;1999.90;999.90;;;;;;;4.81;79.63;99987.16;15669220;28;20072;-63
2021/01/19 17:44:34;;;;;;;1999.90;999.90;;;;;;;4.51;80.86;99980.41;15690898;28;20034;-61
2021/01/19 17:52:07;;;;;;;1999.90;999.90;;;;;;;4.74;80.15;99974.91;15703837;28;20100;-62
2021/01/19 17:59:39;;;;;;;1999.90;999.90;;;;;;;4.75;80.40;99979.28;15674504;28;20103;-63
2021/01/19 18:07:12;;;;;;;1999.90;999.90;;;;;;;5.00;80.25;99980.63;15641898;28;20405;-63
2021/01/19 18:14:44;;;;;;;1999.90;999.90;;;;;;;5.08;79.20;99972.41;15712182;28;20076;-63
2021/01/19 18:22:17;;;;;;;1999.90;999.90;;;;;;;5.09;79.71;99976.78;15652048;28;20163;-63
2021/01/19 18:29:49;;;;;;;1999.90;999.90;;;;;;;4.96;79.77;99972.16;15690593;28;20054;-65
2021/01/19 18:37:22;;;;;;;1999.90;999.90;;;;;;;5.18;79.45;99985.16;15729230;28;20425;-65
2021/01/19 18:44:54;;;;;;;1999.90;999.90;;;;;;;5.16;79.40;99979.94;15695177;28;20037;-64
2021/01/19 18:52:26;;;;;;;1999.90;999.90;;;;;;;5.23;79.44;99987.81;15672011;28;20045;-63
2021/01/19 18:59:58;;;;;;;1999.90;999.90;;;;;;;5.32;79.92;99985.09;15635870;28;20049;-64
2021/01/19 19:07:31;;;;;;;1999.90;999.90;;;;;;;5.25;80.52;99993.84;15617023;28;20155;-62
2021/01/19 19:15:05;;;;;;;1999.90;999.90;;;;;;;5.54;78.81;99987.84;15639474;28;20037;-65
2021/01/19 19:22:38;;;;;;;1999.90;999.90;;;;;;;5.51;79.54;99991.22;15651797;28;20105;-63
2021/01/19 19:30:12;;;;;;;1999.90;999.90;;;;;;;5.74;79.02;99986.47;15644887;28;20073;-64
2021/01/19 19:37:45;;;;;;;1999.90;999.90;;;;;;;5.94;79.18;99987.88;15630372;28;20073;-66
2021/01/19 19:45:16;;;;;;;1999.90;999.90;;;;;;;5.83;79.57;99987.31;15648959;28;20119;-66
2021/01/19 19:52:55;;;;;;;1999.90;999.90;;;;;;;6.19;79.35;99987.16;15640452;28;20044;-66
2021/01/19 20:00:27;;;;;;;1999.90;999.90;;;;;;;6.08;79.83;100002.44;15626487;28;20045;-67
2021/01/19 20:07:59;;;;;;;1999.90;999.90;;;;;;;6.03;80.42;99991.50;15635520;28;20045;-63
2021/01/19 20:15:31;;;;;;;1999.90;999.90;;;;;;;6.30;79.98;99999.59;15664896;28;20045;-63
2021/01/19 20:23:03;;;;;;;1999.90;999.90;;;;;;;6.18;80.34;99987.50;15637806;28;20047;-64
2021/01/19 20:30:35;;;;;;;1999.90;999.90;;;;;;;6.38;80.53;100008.25;15674020;28;20045;-63
2021/01/19 20:38:12;;;;;;;1999.90;999.90;;;;;;;6.59;79.88;100000.97;15624667;28;20045;-63
2021/01/19 20:45:43;;;;;;;1999.90;999.90;;;;;;;6.52;80.29;100011.69;15636672;28;20184;-61
2021/01/19 20:53:16;;;;;;;1999.90;999.90;;;;;;;6.70;80.45;99999.50;15651788;28;20527;-60
2021/01/19 21:00:48;;;;;;;1999.90;999.90;;;;;;;6.72;80.58;100004.72;15663098;28;20388;-63
2021/01/19 21:08:20;;;;;;;1999.90;999.90;;;;;;;6.70;80.42;100002.28;15608937;28;20215;-61
2021/01/19 21:15:52;;;;;;;1999.90;999.90;;;;;;;6.77;80.36;100001.78;15672923;28;20056;-64
2021/01/19 21:23:25;;;;;;;1999.90;999.90;;;;;;;6.59;81.12;99987.09;15653184;28;20306;-63
2021/01/19 21:30:56;;;;;;;1999.90;999.90;;;;;;;6.48;81.09;99996.88;15644695;28;20052;-63
2021/01/19 21:38:29;;;;;;;1999.90;999.90;;;;;;;6.50;81.07;99997.34;15653685;28;20040;-64
2021/01/19 21:46:00;;;;;;;1999.90;999.90;;;;;;;6.39;81.26;100005.16;15674352;28;20110;-65
2021/01/19 21:53:33;;;;;;;1999.90;999.90;;;;;;;6.65;80.69;100006.00;15645487;28;20136;-64
2021/01/19 22:01:05;;;;;;;1999.90;999.90;;;;;;;6.70;80.27;100007.81;15635705;28;20474;-65
2021/01/19 22:08:37;;;;;;;1999.90;999.90;;;;;;;6.77;80.68;100004.56;15629931;28;20076;-63
2021/01/19 22:16:09;;;;;;;1999.90;999.90;;;;;;;6.86;79.80;100010.91;15657460;28;20137;-63
2021/01/19 22:23:41;;;;;;;1999.90;999.90;;;;;;;6.72;81.18;100007.50;15631218;28;20049;-63
2021/01/19 22:31:13;;;;;;;1999.90;999.90;;;;;;;7.12;79.74;100016.50;15640799;28;20037;-63
2021/01/19 22:38:45;;;;;;;1999.90;999.90;;;;;;;7.21;80.15;100011.75;15644317;28;20073;-64
2021/01/19 22:46:17;;;;;;;1999.90;999.90;;;;;;;7.35;79.87;100017.13;15656874;28;20471;-63
2021/01/19 22:53:51;;;;;;;1999.90;999.90;;;;;;;7.48;79.35;100039.13;15649623;28;20045;-65
2021/01/19 23:01:23;;;;;;;1999.90;999.90;;;;;;;7.52;78.95;100048.47;15653230;28;20137;-65
2021/01/19 23:08:55;;;;;;;1999.90;999.90;;;;;;;7.60;79.03;100044.00;15652038;28;20445;-65
2021/01/19 23:16:27;;;;;;;1999.90;999.90;;;;;;;7.46;79.39;100048.94;15645700;28;20041;-64
2021/01/19 23:24:00;;;;;;;1999.90;999.90;;;;;;;7.63;78.21;100050.88;15663448;28;20483;-64
2021/01/19 23:31:31;;;;;;;1999.90;999.90;;;;;;;7.28;79.59;100045.34;15631149;28;20456;-64
2021/01/19 23:39:04;;;;;;;1999.90;999.90;;;;;;;7.57;78.26;100047.47;15660863;28;20126;-66
2021/01/19 23:46:36;;;;;;;1999.90;999.90;;;;;;;7.37;78.99;100045.34;15667193;28;20038;-64
2021/01/19 23:54:09;;;;;;;1999.90;999.90;;;;;;;7.35;78.75;100047.66;15632281;28;20444;-64
